createdAt,value
2022-10-05T00:01:56.808Z,12.10
2022-10-05T00:04:29.163Z,12.10
2022-10-05T00:07:30.038Z,12.00
2022-10-05T00:10:01.028Z,11.90
2022-10-05T00:12:31.918Z,12.00
2022-10-05T00:15:11.260Z,12.00
2022-10-05T00:17:42.977Z,12.20
2022-10-05T00:20:26.275Z,12.30
2022-10-05T00:23:01.329Z,12.30
2022-10-05T00:25:32.854Z,12.10
2022-10-05T00:28:15.810Z,12.10
2022-10-05T00:30:47.021Z,12.10
2022-10-05T00:33:17.886Z,12.20
2022-10-05T00:35:48.984Z,12.20
2022-10-05T00:38:20.108Z,12.30
2022-10-05T00:41:10.670Z,12.40
2022-10-05T00:44:25.510Z,12.30
2022-10-05T00:47:18.572Z,12.20
2022-10-05T00:50:18.274Z,12.10
2022-10-05T00:53:10.189Z,12.00
2022-10-05T00:56:27.851Z,11.90
2022-10-05T00:59:54.328Z,12.00
2022-10-05T01:02:35.883Z,11.80
2022-10-05T01:05:13.716Z,11.70
2022-10-05T01:08:00.561Z,11.60
2022-10-05T01:10:45.925Z,11.50
2022-10-05T01:13:38.079Z,11.50
2022-10-05T01:16:26.239Z,11.50
2022-10-05T01:19:21.602Z,11.70
2022-10-05T01:22:04.870Z,11.70
2022-10-05T01:24:53.661Z,11.70
2022-10-05T01:28:02.587Z,11.90
2022-10-05T01:31:06.124Z,11.90
2022-10-05T01:33:55.640Z,11.90
2022-10-05T01:36:49.070Z,11.80
2022-10-05T01:39:41.721Z,11.70
2022-10-05T01:42:52.006Z,11.80
2022-10-05T01:45:52.106Z,11.70
2022-10-05T01:48:41.822Z,11.50
2022-10-05T01:51:33.923Z,11.40
2022-10-05T01:54:31.333Z,11.30
2022-10-05T01:57:50.044Z,11.30
2022-10-05T02:00:21.535Z,11.10
2022-10-05T02:03:11.067Z,11.10
2022-10-05T02:05:53.399Z,11.10
2022-10-05T02:08:34.961Z,11.10
2022-10-05T02:11:12.401Z,11.00
2022-10-05T02:13:56.311Z,11.00
2022-10-05T02:16:40.523Z,11.00
2022-10-05T02:19:24.564Z,10.90
2022-10-05T02:22:03.938Z,10.90
2022-10-05T02:24:59.657Z,10.80
2022-10-05T02:27:37.788Z,10.90
2022-10-05T02:30:14.120Z,10.80
2022-10-05T02:33:00.576Z,10.80
2022-10-05T02:35:31.554Z,10.70
2022-10-05T02:38:09.666Z,10.70
2022-10-05T02:40:58.494Z,10.60
2022-10-05T02:44:06.098Z,10.60
2022-10-05T02:47:01.784Z,10.50
2022-10-05T02:49:52.329Z,10.50
2022-10-05T02:53:07.378Z,10.50
2022-10-05T02:56:06.948Z,10.40
2022-10-05T02:59:23.899Z,10.30
2022-10-05T03:02:22.589Z,10.30
2022-10-05T03:05:33.137Z,10.30
2022-10-05T03:08:23.185Z,10.20
2022-10-05T03:11:35.619Z,10.20
2022-10-05T03:14:21.896Z,10.10
2022-10-05T03:17:25.872Z,10.10
2022-10-05T03:20:22.677Z,10.20
2022-10-05T03:23:00.813Z,10.10
2022-10-05T03:26:01.934Z,10.00
2022-10-05T03:29:01.725Z,9.90
2022-10-05T03:31:38.797Z,9.90
2022-10-05T03:34:36.891Z,9.90
2022-10-05T03:37:43.823Z,10.00
2022-10-05T03:40:40.423Z,10.00
2022-10-05T03:43:42.154Z,10.10
2022-10-05T03:46:47.916Z,10.20
2022-10-05T03:49:33.415Z,10.10
2022-10-05T03:52:39.906Z,10.10
2022-10-05T03:55:42.374Z,10.20
2022-10-05T03:58:28.205Z,10.10
2022-10-05T04:01:05.909Z,10.00
2022-10-05T04:03:44.847Z,10.00
2022-10-05T04:06:35.529Z,10.00
2022-10-05T04:09:15.457Z,10.00
2022-10-05T04:12:32.438Z,10.20
2022-10-05T04:15:39.168Z,10.20
2022-10-05T04:18:48.878Z,10.30
2022-10-05T04:21:35.329Z,10.30
2022-10-05T04:24:31.210Z,10.30
2022-10-05T04:27:22.592Z,10.30
2022-10-05T04:29:58.632Z,10.30
2022-10-05T04:33:00.319Z,10.20
2022-10-05T04:35:58.818Z,10.20
2022-10-05T04:38:49.813Z,10.10
2022-10-05T04:41:56.283Z,10.00
2022-10-05T04:44:48.422Z,10.00
2022-10-05T04:47:31.129Z,10.00
2022-10-05T04:50:38.842Z,10.00
2022-10-05T04:53:24.999Z,10.00
2022-10-05T04:56:16.500Z,10.00
2022-10-05T04:59:15.398Z,10.00
2022-10-05T05:02:17.903Z,9.90
2022-10-05T05:05:31.695Z,9.90
2022-10-05T05:08:25.178Z,9.90
2022-10-05T05:11:36.703Z,9.80
2022-10-05T05:14:46.944Z,9.70
2022-10-05T05:17:52.245Z,9.70
2022-10-05T05:20:51.312Z,9.70
2022-10-05T05:23:42.753Z,9.70
2022-10-05T05:26:29.184Z,9.70
2022-10-05T05:29:27.076Z,9.60
2022-10-05T05:32:39.398Z,9.60
2022-10-05T05:36:07.823Z,9.60
2022-10-05T05:39:16.834Z,9.60
2022-10-05T05:41:58.635Z,9.60
2022-10-05T05:44:55.869Z,9.50
2022-10-05T05:47:37.833Z,9.40
2022-10-05T05:50:38.342Z,9.30
2022-10-05T05:53:21.150Z,9.30
2022-10-05T05:56:21.034Z,9.20
2022-10-05T05:59:03.596Z,9.20
2022-10-05T06:01:44.936Z,9.20
2022-10-05T06:04:30.660Z,9.10
2022-10-05T06:07:03.758Z,9.20
2022-10-05T06:09:46.016Z,9.10
2022-10-05T06:12:27.384Z,9.10
2022-10-05T06:15:20.910Z,9.20
2022-10-05T06:17:57.056Z,9.10
2022-10-05T06:20:35.885Z,9.10
2022-10-05T06:23:17.576Z,9.00
2022-10-05T06:26:15.469Z,9.10
2022-10-05T06:28:58.255Z,9.20
2022-10-05T06:32:34.931Z,9.20
2022-10-05T06:35:39.137Z,9.20
2022-10-05T06:38:28.722Z,9.30
2022-10-05T06:41:23.623Z,9.40
2022-10-05T06:44:16.768Z,9.50
2022-10-05T06:47:03.195Z,9.60
2022-10-05T06:49:49.251Z,9.70
2022-10-05T06:53:06.299Z,9.80
2022-10-05T06:56:11.341Z,9.90
2022-10-05T06:59:22.604Z,10.00
2022-10-05T07:02:01.068Z,10.10
2022-10-05T07:04:53.102Z,10.20
2022-10-05T07:07:39.721Z,10.30
2022-10-05T07:10:47.125Z,10.40
2022-10-05T07:13:42.007Z,10.40
2022-10-05T07:16:30.628Z,10.60
2022-10-05T07:19:33.497Z,10.60
2022-10-05T07:22:51.287Z,10.80
2022-10-05T07:26:06.961Z,10.90
2022-10-05T07:29:10.722Z,11.00
2022-10-05T07:32:06.621Z,11.10
2022-10-05T07:35:01.597Z,11.20
2022-10-05T07:37:55.734Z,11.30
2022-10-05T07:40:31.135Z,11.30
2022-10-05T07:43:35.907Z,11.40
2022-10-05T07:46:52.600Z,11.50
2022-10-05T07:49:45.119Z,11.50
2022-10-05T07:52:25.207Z,11.70
2022-10-05T07:55:22.188Z,11.90
2022-10-05T07:58:07.140Z,12.10
2022-10-05T08:01:04.745Z,12.20
2022-10-05T08:04:30.674Z,12.30
2022-10-05T08:07:06.649Z,12.40
2022-10-05T08:09:45.452Z,12.50
2022-10-05T08:12:24.340Z,12.60
2022-10-05T08:15:13.948Z,12.70
2022-10-05T08:17:57.348Z,12.70
2022-10-05T08:20:55.200Z,12.80
2022-10-05T08:24:24.473Z,12.90
2022-10-05T08:27:02.197Z,13.10
2022-10-05T08:29:46.262Z,13.20
2022-10-05T08:32:31.620Z,13.30
2022-10-05T08:35:25.445Z,13.30
2022-10-05T08:37:57.051Z,13.40
2022-10-05T08:41:04.386Z,13.40
2022-10-05T08:44:03.052Z,13.50
2022-10-05T08:46:48.561Z,13.60
2022-10-05T08:50:03.849Z,13.70
2022-10-05T08:52:41.711Z,13.90
2022-10-05T08:55:40.498Z,13.90
2022-10-05T08:58:54.831Z,14.10
2022-10-05T09:01:58.529Z,14.20
2022-10-05T09:05:26.130Z,14.30
2022-10-05T09:08:05.060Z,14.40
2022-10-05T09:11:05.931Z,14.50
2022-10-05T09:14:05.396Z,14.70
2022-10-05T09:16:48.352Z,14.70
2022-10-05T09:19:34.500Z,14.80
2022-10-05T09:22:46.509Z,14.90
2022-10-05T09:25:56.645Z,15.00
2022-10-05T09:29:16.314Z,15.10
2022-10-05T09:32:46.621Z,15.40
2022-10-05T09:35:45.277Z,15.50
2022-10-05T09:39:02.410Z,15.50
2022-10-05T09:42:17.265Z,15.60
2022-10-05T09:45:29.640Z,15.80
2022-10-05T09:48:12.427Z,15.90
2022-10-05T09:51:13.991Z,16.00
2022-10-05T09:54:06.024Z,16.00
2022-10-05T09:57:14.811Z,16.20
2022-10-05T10:00:09.638Z,16.30
2022-10-05T10:03:22.977Z,16.40
2022-10-05T10:06:05.479Z,16.50
2022-10-05T10:09:13.287Z,16.60
2022-10-05T10:12:24.320Z,16.70
2022-10-05T10:15:44.985Z,16.90
2022-10-05T10:19:12.867Z,17.10
2022-10-05T10:22:26.604Z,17.40
2022-10-05T10:26:06.974Z,17.60
2022-10-05T10:29:08.294Z,17.80
2022-10-05T10:32:19.207Z,17.90
2022-10-05T10:35:36.198Z,18.20
2022-10-05T10:38:29.939Z,18.90
2022-10-05T10:41:56.691Z,19.90
2022-10-05T10:44:54.578Z,21.20
2022-10-05T10:48:15.247Z,22.50
2022-10-05T10:51:36.019Z,22.90
2022-10-05T10:54:24.427Z,23.30
2022-10-05T10:57:17.431Z,23.20
2022-10-05T10:59:57.676Z,23.40
2022-10-05T11:02:58.798Z,23.50
2022-10-05T11:06:02.990Z,23.60
2022-10-05T11:08:51.787Z,23.30
2022-10-05T11:11:51.383Z,23.20
2022-10-05T11:14:55.918Z,23.10
2022-10-05T11:17:53.850Z,23.00
2022-10-05T11:21:00.023Z,22.90
2022-10-05T11:23:49.556Z,23.00
2022-10-05T11:26:58.018Z,23.20
2022-10-05T11:29:41.403Z,23.10
2022-10-05T11:32:26.785Z,23.00
2022-10-05T11:35:24.738Z,23.20
2022-10-05T11:38:09.025Z,23.20
2022-10-05T11:41:13.624Z,23.50
2022-10-05T11:44:19.856Z,23.60
2022-10-05T11:47:28.473Z,23.50
2022-10-05T11:50:40.045Z,23.80
2022-10-05T11:53:43.829Z,23.80
2022-10-05T11:56:42.228Z,24.00
2022-10-05T11:59:44.421Z,23.90
2022-10-05T12:02:43.899Z,24.20
2022-10-05T12:05:54.087Z,24.50
2022-10-05T12:08:33.471Z,24.30
2022-10-05T12:11:30.554Z,24.10
2022-10-05T12:14:25.175Z,24.20
2022-10-05T12:17:24.456Z,24.40
2022-10-05T12:20:04.627Z,24.30
2022-10-05T12:22:59.691Z,24.40
2022-10-05T12:25:44.367Z,24.30
2022-10-05T12:28:33.674Z,24.50
2022-10-05T12:31:21.571Z,24.40
2022-10-05T12:33:52.458Z,24.40
2022-10-05T12:36:59.172Z,24.10
2022-10-05T12:39:50.405Z,24.10
2022-10-05T12:42:42.141Z,24.20
2022-10-05T12:45:43.556Z,24.30
2022-10-05T12:48:56.273Z,24.60
2022-10-05T12:51:39.989Z,24.70
2022-10-05T12:54:43.132Z,24.90
2022-10-05T12:57:39.195Z,24.90
2022-10-05T13:00:23.234Z,25.20
2022-10-05T13:03:02.328Z,25.40
2022-10-05T13:05:52.753Z,25.50
2022-10-05T13:08:53.425Z,25.40
2022-10-05T13:11:45.793Z,25.30
2022-10-05T13:14:50.794Z,25.10
2022-10-05T13:18:12.040Z,25.20
2022-10-05T13:21:04.712Z,25.30
2022-10-05T13:23:58.999Z,25.40
2022-10-05T13:26:45.098Z,25.40
2022-10-05T13:29:39.782Z,25.50
2022-10-05T13:32:17.005Z,25.50
2022-10-05T13:35:18.068Z,25.60
2022-10-05T13:38:25.514Z,25.60
2022-10-05T13:41:17.990Z,25.60
2022-10-05T13:44:43.200Z,25.70
2022-10-05T13:47:48.715Z,25.70
2022-10-05T13:50:31.120Z,25.70
2022-10-05T13:53:29.661Z,25.70
2022-10-05T13:56:31.086Z,25.90
2022-10-05T13:59:30.959Z,25.90
2022-10-05T14:02:15.796Z,25.90
2022-10-05T14:04:50.817Z,26.00
2022-10-05T14:07:34.101Z,25.90
2022-10-05T14:10:13.393Z,26.00
2022-10-05T14:12:45.833Z,26.30
2022-10-05T14:15:38.465Z,26.50
2022-10-05T14:18:28.057Z,26.60
2022-10-05T14:21:04.730Z,26.60
2022-10-05T14:23:35.860Z,26.60
2022-10-05T14:26:38.041Z,26.60
2022-10-05T14:29:19.406Z,26.30
2022-10-05T14:32:02.405Z,26.10
2022-10-05T14:34:35.637Z,25.90
2022-10-05T14:37:25.818Z,25.90
2022-10-05T14:40:03.421Z,25.90
2022-10-05T14:42:47.123Z,25.90
2022-10-05T14:45:21.604Z,25.70
2022-10-05T14:47:54.056Z,25.70
2022-10-05T14:50:31.068Z,25.80
2022-10-05T14:53:22.362Z,25.80
2022-10-05T14:56:17.924Z,25.70
2022-10-05T14:59:05.281Z,25.60
2022-10-05T15:01:39.680Z,25.70
2022-10-05T15:04:42.382Z,25.80
2022-10-05T15:07:31.098Z,25.90
2022-10-05T15:10:43.174Z,25.70
2022-10-05T15:13:25.969Z,25.50
2022-10-05T15:16:10.705Z,25.20
2022-10-05T15:19:01.529Z,25.20
2022-10-05T15:21:43.442Z,25.30
2022-10-05T15:24:32.191Z,25.20
2022-10-05T15:27:06.083Z,25.10
2022-10-05T15:29:55.884Z,25.00
2022-10-05T15:33:12.984Z,25.10
2022-10-05T15:36:06.555Z,25.20
2022-10-05T15:39:00.197Z,25.20
2022-10-05T15:42:11.532Z,25.20
2022-10-05T15:45:14.257Z,25.30
2022-10-05T15:48:17.942Z,25.40
2022-10-05T15:51:23.321Z,25.40
2022-10-05T15:54:26.060Z,25.50
2022-10-05T15:57:32.272Z,25.50
2022-10-05T16:00:10.341Z,25.40
2022-10-05T16:03:11.273Z,25.20
2022-10-05T16:06:10.365Z,25.20
2022-10-05T16:09:41.264Z,25.30
2022-10-05T16:12:33.482Z,25.20
2022-10-05T16:15:26.589Z,25.30
2022-10-05T16:18:34.738Z,25.20
2022-10-05T16:21:41.429Z,25.10
2022-10-05T16:24:56.861Z,25.10
2022-10-05T16:27:42.973Z,24.90
2022-10-05T16:30:18.470Z,24.70
2022-10-05T16:33:03.667Z,24.70
2022-10-05T16:35:55.824Z,24.50
2022-10-05T16:39:02.361Z,24.60
2022-10-05T16:42:02.145Z,24.80
2022-10-05T16:44:50.069Z,24.80
2022-10-05T16:47:56.505Z,24.80
2022-10-05T16:51:03.474Z,24.50
2022-10-05T16:53:40.779Z,24.30
2022-10-05T16:56:25.207Z,24.10
2022-10-05T16:59:40.431Z,23.80
2022-10-05T17:02:41.210Z,23.60
2022-10-05T17:05:22.305Z,23.40
2022-10-05T17:08:38.547Z,23.30
2022-10-05T17:11:30.561Z,23.10
2022-10-05T17:14:38.819Z,22.90
2022-10-05T17:17:43.973Z,22.80
2022-10-05T17:20:41.599Z,22.60
2022-10-05T17:23:50.403Z,22.50
2022-10-05T17:26:45.915Z,22.40
2022-10-05T17:29:51.855Z,22.30
2022-10-05T17:32:22.908Z,22.20
2022-10-05T17:35:02.472Z,22.10
2022-10-05T17:37:42.663Z,21.90
2022-10-05T17:40:36.216Z,21.70
2022-10-05T17:43:16.406Z,21.40
2022-10-05T17:45:50.976Z,21.30
2022-10-05T17:48:54.292Z,21.10
2022-10-05T17:51:46.757Z,21.00
2022-10-05T17:54:51.151Z,20.80
2022-10-05T17:57:27.022Z,20.60
2022-10-05T18:00:02.094Z,20.30
2022-10-05T18:02:36.619Z,20.10
2022-10-05T18:05:16.062Z,19.90
2022-10-05T18:07:49.735Z,19.60
2022-10-05T18:10:30.671Z,19.40
2022-10-05T18:13:06.611Z,19.30
2022-10-05T18:15:45.270Z,19.10
2022-10-05T18:18:43.824Z,19.00
2022-10-05T18:21:14.801Z,18.70
2022-10-05T18:23:51.861Z,18.50
2022-10-05T18:26:40.115Z,18.40
2022-10-05T18:30:00.604Z,18.20
2022-10-05T18:33:03.630Z,18.10
2022-10-05T18:36:03.599Z,17.90
2022-10-05T18:39:03.986Z,17.70
2022-10-05T18:41:40.858Z,17.60
2022-10-05T18:44:14.615Z,17.60
2022-10-05T18:47:07.358Z,17.70
2022-10-05T18:50:16.612Z,17.70
2022-10-05T18:53:03.487Z,17.60
2022-10-05T18:55:58.905Z,17.50
2022-10-05T18:58:58.116Z,17.50
2022-10-05T19:01:47.766Z,17.40
2022-10-05T19:04:47.120Z,17.50
2022-10-05T19:07:59.296Z,17.40
2022-10-05T19:10:55.676Z,17.30
2022-10-05T19:13:55.851Z,17.20
2022-10-05T19:17:02.959Z,17.00
2022-10-05T19:20:26.854Z,16.90
2022-10-05T19:23:37.710Z,16.70
2022-10-05T19:26:18.910Z,16.60
2022-10-05T19:29:32.264Z,16.60
2022-10-05T19:32:44.081Z,16.50
2022-10-05T19:35:58.933Z,16.40
2022-10-05T19:39:07.950Z,16.30
2022-10-05T19:42:01.383Z,16.20
2022-10-05T19:45:17.770Z,16.20
2022-10-05T19:47:48.679Z,16.10
2022-10-05T19:50:33.664Z,16.10
2022-10-05T19:53:10.401Z,16.00
2022-10-05T19:55:45.788Z,16.00
2022-10-05T19:58:33.282Z,16.00
2022-10-05T20:01:06.900Z,15.90
2022-10-05T20:03:38.528Z,15.70
2022-10-05T20:06:11.046Z,15.70
2022-10-05T20:08:46.649Z,15.60
2022-10-05T20:11:21.615Z,15.60
2022-10-05T20:13:52.474Z,15.50
2022-10-05T20:16:45.020Z,15.50
2022-10-05T20:19:52.549Z,15.40
2022-10-05T20:22:36.529Z,15.30
2022-10-05T20:25:28.792Z,15.30
2022-10-05T20:27:59.711Z,15.20
2022-10-05T20:30:33.980Z,15.20
2022-10-05T20:33:10.903Z,15.10
2022-10-05T20:35:41.808Z,15.10
2022-10-05T20:38:12.698Z,15.10
2022-10-05T20:40:43.642Z,15.10
2022-10-05T20:43:15.301Z,15.10
2022-10-05T20:45:46.254Z,15.10
2022-10-05T20:48:17.504Z,15.00
2022-10-05T20:50:48.489Z,15.00
2022-10-05T20:53:19.360Z,15.00
2022-10-05T20:55:50.249Z,15.10
2022-10-05T20:58:21.127Z,15.00
2022-10-05T21:01:10.365Z,15.00
2022-10-05T21:03:44.025Z,15.00
2022-10-05T21:06:14.927Z,15.10
2022-10-05T21:08:46.802Z,15.00
2022-10-05T21:11:17.837Z,15.20
2022-10-05T21:13:49.445Z,15.20
2022-10-05T21:16:20.975Z,15.30
2022-10-05T21:18:51.940Z,15.30
2022-10-05T21:21:27.331Z,15.40
2022-10-05T21:24:00.317Z,15.40
2022-10-05T21:26:31.806Z,15.30
2022-10-05T21:29:06.796Z,15.30
2022-10-05T21:31:40.547Z,15.30
2022-10-05T21:34:11.564Z,15.30
2022-10-05T21:36:42.447Z,15.30
2022-10-05T21:39:13.417Z,15.40
2022-10-05T21:41:44.346Z,15.50
2022-10-05T21:44:15.335Z,15.50
2022-10-05T21:46:47.112Z,15.50
2022-10-05T21:49:19.854Z,15.50
2022-10-05T21:51:50.962Z,15.60
2022-10-05T21:54:22.893Z,15.60
2022-10-05T21:56:57.515Z,15.80
2022-10-05T21:59:31.715Z,15.90
2022-10-05T22:02:03.059Z,16.00
2022-10-05T22:04:33.949Z,16.00
2022-10-05T22:07:19.564Z,16.10
2022-10-05T22:09:51.713Z,16.20
2022-10-05T22:12:23.617Z,16.20
2022-10-05T22:14:54.768Z,16.30
2022-10-05T22:17:29.014Z,16.40
2022-10-05T22:20:00.684Z,16.30
2022-10-05T22:22:33.183Z,16.40
2022-10-05T22:25:04.764Z,16.30
2022-10-05T22:27:36.200Z,16.30
2022-10-05T22:30:08.106Z,16.40
2022-10-05T22:32:39.047Z,16.50
2022-10-05T22:35:11.766Z,16.40
2022-10-05T22:37:43.746Z,16.50
2022-10-05T22:40:14.670Z,16.40
2022-10-05T22:42:45.609Z,16.40
2022-10-05T22:45:16.699Z,16.40
2022-10-05T22:47:48.087Z,16.40
2022-10-05T22:50:19.031Z,16.50
2022-10-05T22:52:50.746Z,16.50
2022-10-05T22:55:21.830Z,16.50
2022-10-05T22:57:52.762Z,16.40
2022-10-05T23:00:35.161Z,16.30
2022-10-05T23:03:16.211Z,16.30
2022-10-05T23:05:47.197Z,16.30
2022-10-05T23:08:18.087Z,16.40
2022-10-05T23:10:48.963Z,16.40
2022-10-05T23:13:23.034Z,16.40
2022-10-05T23:15:53.937Z,16.30
2022-10-05T23:18:25.462Z,16.30
2022-10-05T23:20:57.236Z,16.20
2022-10-05T23:23:28.411Z,16.20
2022-10-05T23:26:00.580Z,16.20
2022-10-05T23:28:32.220Z,16.20
2022-10-05T23:31:08.242Z,16.20
2022-10-05T23:33:39.199Z,16.30
2022-10-05T23:36:16.277Z,16.30
2022-10-05T23:38:47.610Z,16.20
2022-10-05T23:41:22.081Z,16.20
2022-10-05T23:43:55.185Z,16.20
2022-10-05T23:46:26.242Z,16.00
2022-10-05T23:48:57.189Z,16.00
2022-10-05T23:51:28.185Z,16.10
2022-10-05T23:53:59.036Z,16.10
2022-10-05T23:56:29.911Z,16.10
2022-10-05T23:59:00.772Z,16.10
